Accueil
METAR-TAF:

METAR-TAF

Aéroports :

Aéroport international Don Muang

Bangkok, Thaïlande

latitude: 13-54-45N, longitude: 100-36-24E, altitude: 4 m

Observation

Le bulletin a été fait il y a 34 minutes, à 16:30 UTC
Vent 4 kt de est/sud-est
Température 27°C
Humidité 70%
Pression 1014 hPa
Visibilité 10 km ou plus
Quelques nuages à une hauteur de 3000 ft

METAR: VTBD 211630Z 11004KT 9999 FEW030 27/21 Q1014 NOSIG

Heure: 00:04 (17:04 UTC)

Prévision

Le bulletin a été fait il y a 6 heures et 4 minutes, à 11:00 UTC
Prévision valable du 21 à 12 UTC au 22 à 18 UTC
Vent 8 kt de est
Visibilité 10 km ou plus
Quelques nuages à une hauteur de 3000 ft
Evoluant progressivement
du 21 à 20 UTC au 21 à 22 UTC
Vent 5 kt de nord
Evoluant progressivement
du 22 à 01 UTC au 22 à 03 UTC
Vent 8 kt de est

TAF: VTBD 211100Z 2112/2218 08008KT 9999 FEW030 BECMG 2120/2122 01005KT BECMG 2201/2203 08008KT

Observations et prévisions météorologiques de plus de 4000 aéroports (messages METAR et TAF).

Les stations disponibles sont représentées par des disques jaunes et rouges sur la carte.

Passer la souris dessus pour voir le nom de la station.

Cliquer dessus pour voir les observations et prévisions météorologiques.

Pour changer de carte: cliquez sur les boutons verts avec une croix noire pour zoomer, sur le bouton vert avec un tiret pour effectuer un zoom arrière, ou sur les flèches vertes pour les cartes adjacentes.


METAR-TAF: